Latest Weather Observations for Leonora Airport

IDW60801

Issued at 3:13 am WST Thursday 3 September 2026 (issued every 10 minutes, with the page automatically refreshed every 10 minutes)

About weather observations | Map of weather stations | Latest weather observations for WA | Other Formats
Station Details ID: 012241 Name: LEONORA AERO Lat: -28.88 Lon: 121.32 Height: 370.0 m
Data from the previous 72 hours. | See also: Recent months at Leonora Airport
Date/Time
WST
Temp
°C
App
Temp
°C
Dew
Point
°C
Rel
Hum
%
Delta-T
°C
Wind Press
QNH
hPa
Press
MSL
hPa
Rain since
9am
mm
Dir  Spd
km/h
Gust
km/h
Spd
kts
Gust
kts
03/03:00am 10.4 7.9 4.5 67 2.7 SSE 7 9 4 5 1019.6 1018.7 0.0
03/02:30am 10.6 8.0 4.3 65 2.9 SSE 7 9 4 5 1019.6 1018.7 0.0
03/02:00am 11.1 8.5 4.3 63 3.1 SSE 7 9 4 5 1019.8 1018.9 0.0
03/01:55am 11.0 8.5 4.5 64 3.0 SSE 7 9 4 5 1019.8 1018.9 0.0
03/01:40am 11.5 8.5 4.0 60 3.4 S 9 11 5 6 1019.9 1019.0 0.0
03/01:30am 11.8 8.7 3.8 58 3.6 S 9 13 5 7 1019.8 1018.9 0.0
03/01:00am 12.3 9.3 4.0 57 3.8 S 9 13 5 7 1020.0 1019.1 0.0
03/12:59am 12.3 9.3 4.0 57 3.8 S 9 17 5 9 1020.0 1019.1 0.0
03/12:30am 12.9 9.9 4.1 55 4.1 S 9 13 5 7 1020.1 1019.2 0.0
03/12:07am 13.4 10.4 4.0 53 4.4 SSE 9 13 5 7 1020.1 1019.2 0.0
03/12:00am 13.4 10.4 4.0 53 4.3 S 9 13 5 7 1020.2 1019.3 0.0
 
Date/Time
WST
Temp
°C
App
Temp
°C
Dew
Point
°C
Rel
Hum
%
Delta-T
°C
Wind Press
QNH
hPa
Press
MSL
hPa
Rain since
9am
mm
Dir  Spd
km/h
Gust
km/h
Spd
kts
Gust
kts
02/11:30pm 13.9 10.5 3.9 51 4.6 S 11 15 6 8 1020.3 1019.4 0.0
02/11:00pm 14.3 10.9 4.0 50 4.8 SSE 11 15 6 8 1020.4 1019.5 0.0
02/10:30pm 13.9 10.7 5.0 55 4.2 S 11 15 6 8 1020.5 1019.6 0.0
02/10:00pm 14.9 11.3 4.9 51 4.8 S 13 20 7 11 1020.6 1019.7 0.0
02/09:30pm 15.7 12.4 4.7 48 5.3 S 11 15 6 8 1020.5 1019.6 0.0
02/09:00pm 15.7 12.6 5.6 51 4.9 S 11 15 6 8 1020.5 1019.6 0.0
02/08:30pm 16.3 13.2 5.6 49 5.2 S 11 13 6 7 1020.4 1019.5 0.0
02/08:00pm 16.1 14.1 7.1 55 4.5 SSW 7 11 4 6 1020.2 1019.3 0.0
02/07:30pm 16.7 14.8 7.4 54 4.7 SSW 7 9 4 5 1019.9 1019.0 0.0
02/07:00pm 17.8 15.8 7.0 49 5.5 SW 7 9 4 5 1019.7 1018.8 0.0
02/06:30pm 19.4 16.4 5.8 41 6.8 WSW 11 15 6 8 1019.4 1018.5 0.0
02/06:00pm 20.5 16.5 4.9 36 7.7 WSW 15 20 8 11 1019.2 1018.2 0.0
02/05:30pm 21.6 16.9 5.1 34 8.3 W 19 24 10 13 1018.9 1017.9 0.0
02/05:00pm 22.1 16.9 5.5 34 8.4 WSW 22 30 12 16 1018.5 1017.5 0.0
02/04:30pm 22.9 18.2 6.2 34 8.7 W 20 28 11 15 1018.1 1017.2 0.0
02/04:00pm 23.0 18.9 6.3 34 8.7 WSW 17 24 9 13 1018.0 1017.1 0.0
02/03:30pm 23.5 20.0 7.2 35 8.6 WSW 15 24 8 13 1018.0 1017.1 0.0
02/03:00pm 23.2 19.3 6.9 35 8.6 WSW 17 30 9 16 1018.1 1017.2 0.0
02/02:30pm 22.3 18.5 7.7 39 7.7 WSW 17 24 9 13 1018.3 1017.3 0.0
02/02:00pm 22.3 17.8 6.9 37 8.0 WSW 20 30 11 16 1018.3 1017.3 0.0
02/01:30pm 22.1 17.9 8.2 41 7.4 WNW 20 30 11 16 1018.5 1017.5 0.0
02/01:00pm 22.3 18.1 8.1 40 7.6 W 20 30 11 16 1019.0 1018.0 0.0
02/12:30pm 21.6 18.9 8.8 44 6.9 W 13 24 7 13 1019.5 1018.6 0.0
02/12:00pm 21.4 18.4 9.3 46 6.6 WSW 15 22 8 12 1019.9 1019.0 0.0
02/11:30am 21.0 18.5 9.6 48 6.2 WSW 13 20 7 11 1020.2 1019.3 0.0
02/11:00am 20.7 17.3 9.3 48 6.2 W 17 24 9 13 1020.6 1019.7 0.0
02/10:30am 20.2 17.7 9.7 51 5.7 W 13 20 7 11 1021.0 1020.1 0.0
02/10:00am 19.2 17.8 9.4 53 5.3 SW 7 15 4 8 1021.5 1020.5 0.0
02/09:30am 18.0 16.5 10.6 62 4.0 SSW 9 13 5 7 1021.7 1020.8 0.0
02/09:00am 16.6 14.8 9.3 62 3.8 S 9 15 5 8 1022.1 1021.2 0.0
02/08:30am 15.4 12.7 9.1 66 3.3 SSW 13 17 7 9 1022.0 1021.1 0.0
02/08:00am 14.3 12.0 9.1 71 2.7 SSW 11 17 6 9 1021.9 1021.0 0.0
02/07:30am 13.0 10.8 9.4 79 1.9 SSW 11 17 6 9 1021.5 1020.5 0.0
02/07:00am 11.6 10.1 9.3 86 1.2 SSW 7 11 4 6 1021.0 1020.1 0.0
02/06:30am 10.5 10.1 9.6 94 0.5 SW 2 6 1 3 1020.7 1019.8 0.0
02/06:00am 10.4 9.2 9.5 94 0.5 SW 6 7 3 4 1020.5 1019.6 0.0
02/05:30am 10.5 9.3 9.6 94 0.5 SSW 6 7 3 4 1020.2 1019.3 0.0
02/05:00am 10.7 9.3 9.5 92 0.6 SSW 7 9 4 5 1020.1 1019.2 0.0
02/04:30am 11.1 9.9 9.5 90 0.8 WSW 6 7 3 4 1020.0 1019.1 0.0
02/04:00am 11.4 10.0 9.7 89 0.9 WSW 7 9 4 5 1019.9 1019.0 0.0
02/03:30am 12.4 12.5 10.0 85 1.3 CALM 0 6 0 3 1019.6 1018.7 0.0
02/03:15am 13.2 12.1 10.0 81 1.7 SSE 6 7 3 4 1019.6 1018.7 0.0
02/03:05am 13.3 13.0 10.1 81 1.7 SSE 2 7 1 4 1019.7 1018.8 0.0
02/03:00am 13.5 13.6 10.3 81 1.7 CALM 0 7 0 4 1019.7 1018.8 0.0
02/02:30am 13.3 12.1 10.3 82 1.6 S 7 11 4 6 1019.6 1018.7 0.0
02/02:00am 13.0 11.9 10.5 85 1.3 SSE 7 9 4 5 1019.9 1019.0 0.0
02/01:52am 12.7 11.8 10.6 87 1.1 SSE 6 9 3 5 1019.9 1019.0 0.0
02/01:36am 12.8 12.9 10.3 85 1.3 CALM 0 0 0 0 1020.0 1019.1 0.0
02/01:30am 12.9 13.0 10.3 84 1.4 CALM 0 6 0 3 1020.0 1019.1 0.0
02/01:00am 13.6 12.9 10.2 80 1.8 SW 4 6 2 3 1020.4 1019.5 0.0
02/12:54am 13.9 13.3 10.5 80 1.8 SW 4 7 2 4 1020.4 1019.5 0.0
02/12:30am 15.3 14.0 10.1 71 2.8 S 7 11 4 6 1020.5 1019.6 0.0
02/12:08am 15.6 14.0 10.2 70 2.9 SSE 9 13 5 7 1020.6 1019.7 0.0
02/12:00am 15.7 13.7 10.2 70 2.9 SSE 11 15 6 8 1020.6 1019.7 0.0
 
Date/Time
WST
Temp
°C
App
Temp
°C
Dew
Point
°C
Rel
Hum
%
Delta-T
°C
Wind Press
QNH
hPa
Press
MSL
hPa
Rain since
9am
mm
Dir  Spd
km/h
Gust
km/h
Spd
kts
Gust
kts
01/11:30pm 14.6 13.5 10.8 78 2.0 S 7 9 4 5 1020.8 1019.9 0.0
01/11:00pm 14.8 15.2 11.2 79 1.9 CALM 0 0 0 0 1021.0 1020.1 0.0
01/10:30pm 15.7 15.0 11.3 75 2.4 S 6 9 3 5 1021.3 1020.3 0.0
01/10:00pm 16.4 16.3 10.9 70 3.0 SE 2 6 1 3 1021.4 1020.4 0.0
01/09:30pm 16.6 15.6 11.1 70 3.0 SSE 7 7 4 4 1021.6 1020.6 0.0
01/09:00pm 17.4 17.7 10.8 65 3.6 CALM 0 0 0 0 1021.7 1020.8 0.0
01/08:41pm 17.9 17.3 10.5 62 4.0 ESE 4 9 2 5 1021.7 1020.8 0.0
01/08:30pm 18.2 17.8 9.8 58 4.5 SE 2 7 1 4 1021.6 1020.6 0.0
01/08:23pm 18.4 17.2 9.5 56 4.8 ESE 6 9 3 5 1021.6 1020.6 0.0
01/08:00pm 18.8 17.0 9.3 54 5.1 ESE 9 13 5 7 1021.5 1020.5 0.0
01/07:30pm 19.2 17.9 9.1 52 5.4 SSE 6 9 3 5 1021.5 1020.5 0.0
01/07:00pm 19.9 18.3 8.9 49 5.9 SSE 7 9 4 5 1021.2 1020.2 0.0
01/06:41pm 20.4 18.7 8.4 46 6.4 SSE 7 11 4 6 1021.0 1020.1 0.0
01/06:30pm 20.6 18.6 8.6 46 6.4 S 9 13 5 7 1020.9 1020.0 0.0
01/06:22pm 20.7 18.7 8.7 46 6.4 SSE 9 13 5 7 1020.8 1019.9 0.0
01/06:00pm 21.2 18.8 8.5 44 6.8 S 11 15 6 8 1020.7 1019.8 0.0
01/05:30pm 22.0 19.0 7.8 40 7.5 S 13 17 7 9 1020.5 1019.6 0.0
01/05:00pm 23.0 19.9 7.1 36 8.4 S 13 20 7 11 1020.3 1019.4 0.0
01/04:30pm 23.7 21.0 7.3 35 8.7 SW 11 19 6 10 1020.2 1019.3 0.0
01/04:00pm 23.8 20.7 7.4 35 8.7 WNW 13 22 7 12 1020.0 1019.1 0.0
01/03:30pm 24.0 21.5 6.7 33 9.1 W 9 17 5 9 1020.0 1019.1 0.0
01/03:00pm 23.9 20.9 6.2 32 9.2 W 11 20 6 11 1019.8 1018.9 0.0
01/02:30pm 23.7 19.9 6.0 32 9.2 W 15 22 8 12 1020.0 1019.1 0.0
01/02:00pm 23.5 21.6 7.6 36 8.5 W 7 13 4 7 1020.2 1019.3 0.0
01/01:30pm 22.9 21.0 7.4 37 8.2 SSW 7 17 4 9 1020.5 1019.6 0.0
01/01:00pm 23.0 21.9 8.3 39 7.9 WNW 4 11 2 6 1020.9 1020.0 0.0
01/12:30pm 21.8 19.8 10.3 48 6.4 NNW 11 19 6 10 1021.4 1020.4 0.0
01/12:00pm 21.6 20.2 9.5 46 6.6 NE 7 13 4 7 1021.8 1020.9 0.0
01/11:30am 21.0 19.9 10.8 52 5.7 N 7 11 4 6 1022.2 1021.3 0.0
01/11:00am 21.0 20.3 11.3 54 5.4 NNE 6 11 3 6 1022.6 1021.7 0.0
01/10:30am 20.1 18.8 11.1 56 5.0 ENE 9 15 5 8 1023.0 1022.1 0.0
01/10:00am 19.4 18.5 10.7 57 4.8 SE 6 13 3 7 1023.3 1022.4 0.0
01/09:30am 18.9 17.4 10.7 59 4.5 SSE 9 15 5 8 1023.4 1022.5 0.0
01/09:00am 18.5 16.9 11.6 64 3.8 SSE 11 15 6 8 1023.4 1022.5 0.0
01/08:30am 17.2 15.4 11.0 67 3.4 S 11 17 6 9 1023.4 1022.5 0.0
01/08:00am 16.2 14.6 11.6 74 2.5 SSW 11 17 6 9 1023.2 1022.3 0.0
01/07:30am 14.8 13.1 11.2 79 2.0 SSW 11 17 6 9 1023.1 1022.7 0.0
01/07:00am 13.3 12.8 10.7 84 1.4 SSW 4 9 2 5 1022.6 1022.2 0.0
01/06:30am 12.6 11.7 10.8 89 1.0 SW 6 9 3 5 1022.3 1021.9 0.0
01/06:00am 11.8 11.6 10.4 91 0.7 WSW 2 6 1 3 1022.0 1021.6 0.0
01/05:30am 12.3 11.3 10.2 87 1.1 W 6 7 3 4 1021.5 1021.0 0.0
01/05:00am 12.8 11.9 10.7 87 1.1 W 6 7 3 4 1021.0 1020.6 0.0
01/04:30am 13.1 13.5 11.3 89 1.0 CALM 0 0 0 0 1020.7 1020.3 0.0
01/04:00am 13.7 13.1 10.5 81 1.7 W 4 6 2 3 1020.6 1020.2 0.0
01/03:30am 13.7 13.9 10.7 82 1.6 CALM 0 0 0 0 1020.5 1020.1 0.0
01/03:00am 14.3 14.5 10.7 79 1.9 CALM 0 0 0 0 1020.8 1020.4 0.0
01/02:30am 15.3 15.6 10.9 75 2.4 CALM 0 0 0 0 1020.7 1020.3 0.0
01/02:00am 16.0 14.9 9.9 67 3.2 SSE 6 7 3 4 1020.6 1020.2 0.0
01/01:30am 16.4 15.1 10.0 66 3.4 S 7 9 4 5 1020.6 1020.2 0.0
01/01:00am 17.4 15.8 10.1 62 3.9 S 9 13 5 7 1020.9 1020.5 0.0
01/12:30am 18.3 15.8 9.6 57 4.7 SSW 13 19 7 10 1020.9 1020.5 0.0
01/12:00am 18.1 16.1 8.7 54 4.9 SSW 9 11 5 6 1020.7 1020.3 0.0
 
Date/Time
WST
Temp
°C
App
Temp
°C
Dew
Point
°C
Rel
Hum
%
Delta-T
°C
Wind Press
QNH
hPa
Press
MSL
hPa
Rain since
9am
mm
Dir  Spd
km/h
Gust
km/h
Spd
kts
Gust
kts
31/11:30pm 19.3 16.4 8.0 48 5.9 SW 13 17 7 9 1020.3 1019.9 0.0
31/11:00pm 19.1 17.7 9.6 54 5.1 SW 7 9 4 5 1020.1 1019.7 0.0
31/10:30pm 19.4 19.2 11.9 62 4.2 W 4 6 2 3 1019.9 1019.5 0.0
31/10:00pm 19.9 18.9 10.3 54 5.3 WNW 6 7 3 4 1020.0 1019.6 0.0
31/09:30pm 20.0 20.5 11.5 58 4.8 CALM 0 6 0 3 1019.6 1019.2 0.0
31/09:00pm 20.2 21.0 12.4 61 4.4 CALM 0 4 0 2 1019.4 1018.9 0.0
31/08:30pm 21.4 21.8 11.1 52 5.8 CALM 0 6 0 3 1019.0 1018.5 0.0
31/08:00pm 22.6 21.3 11.4 49 6.3 WSW 9 15 5 8 1018.7 1018.2 0.0
31/07:30pm 22.0 22.8 13.6 59 4.9 WNW 2 11 1 6 1018.4 1017.9 0.0
31/07:00pm 22.9 24.1 13.9 57 5.3 CALM 0 6 0 3 1017.9 1017.5 0.0
31/06:30pm 24.3 23.9 12.3 47 7.0 NNW 6 7 3 4 1017.5 1017.1 0.0
31/06:00pm 25.4 25.6 11.9 43 7.8 NW 2 6 1 3 1017.3 1016.9 0.0
31/05:30pm 27.5 25.2 8.9 31 10.4 W 11 15 6 8 1017.1 1016.6 0.0
31/05:00pm 28.3 24.4 8.6 29 11.0 WNW 19 24 10 13 1017.0 1016.5 0.0
31/04:30pm 28.9 25.6 8.0 27 11.6 WNW 15 22 8 12 1016.8 1016.3 0.0
31/04:00pm 28.5 24.9 8.2 28 11.2 WNW 17 22 9 12 1016.8 1016.3 0.0
31/03:30pm 29.0 26.4 9.2 29 11.2 NNW 13 20 7 11 1016.8 1016.3 0.0
31/03:00pm 28.8 27.8 9.0 29 11.1 NNW 4 13 2 7 1017.0 1016.5 0.0
31/02:30pm 28.7 27.5 10.4 32 10.5 N 7 13 4 7 1017.3 1016.9 0.0
31/02:00pm 28.4 27.4 11.0 34 10.1 NW 7 15 4 8 1017.6 1017.2 0.0
31/01:30pm 27.7 25.9 9.5 32 10.3 WNW 9 17 5 9 1017.9 1017.5 0.0
31/01:00pm 27.6 25.5 11.2 36 9.5 NW 13 19 7 10 1018.4 1017.9 0.0
31/12:30pm 26.6 24.0 9.5 34 9.6 NNW 13 20 7 11 1018.8 1018.3 0.0
31/12:00pm 26.3 24.6 10.0 36 9.2 NNW 9 17 5 9 1019.1 1018.6 0.0
31/11:30am 25.2 23.6 10.3 39 8.4 WNW 9 15 5 8 1019.6 1019.2 0.0
31/11:00am 24.6 23.4 11.5 43 7.5 WSW 9 17 5 9 1020.2 1019.8 0.0
31/10:30am 24.2 24.6 12.5 48 6.8 NNE 2 11 1 6 1020.5 1020.1 0.0
31/10:00am 21.7 21.7 12.3 55 5.4 NNE 4 9 2 5 1020.7 1020.3 0.0
31/09:30am 19.8 19.0 11.6 59 4.6 NW 7 9 4 5 1021.3 1020.8 0.0
31/09:00am 19.3 19.9 11.8 62 4.2 CALM 0 0 0 0 1021.4 1020.9 0.0
31/08:30am 17.6 18.2 11.9 69 3.2 CALM 0 0 0 0 1021.7 1021.2 0.0
31/08:00am 15.3 16.0 12.1 81 1.8 CALM 0 0 0 0 1021.6 1021.1 0.0
31/07:30am 14.5 15.2 12.2 86 1.3 CALM 0 0 0 0 1021.6 1021.1 0.0
31/07:00am 13.1 13.7 12.0 93 0.6 CALM 0 9 0 5 1021.5 1021.0 0.0
31/06:30am 11.9 12.4 11.7 99 0.1 CALM 0 0 0 0 1021.0 1020.6 0.0
31/06:00am 11.6 12.0 11.1 97 0.3 CALM 0 0 0 0 1020.9 1020.5 0.0
31/05:30am 11.9 12.3 11.4 97 0.3 CALM 0 0 0 0 1020.8 1020.4 0.0
31/05:00am 12.0 12.4 11.4 96 0.3 CALM 0 0 0 0 1020.8 1020.4 0.0
31/04:30am 12.1 12.1 11.2 94 0.5 SE 2 6 1 3 1020.5 1020.1 0.0
31/04:00am 12.4 11.5 11.5 94 0.5 SE 7 11 4 6 1020.4 1020.0 0.0
31/03:30am 12.5 12.6 11.4 93 0.6 SSE 2 6 1 3 1020.6 1020.2 0.0

Other formats

Comma delimited format used in spreadsheet applications
http://www.bom.gov.au/fwo/IDW60801/IDW60801.94450.axf

JavaScript Object Notation format (JSON) in row-major order
http://www.bom.gov.au/fwo/IDW60801/IDW60801.94450.json

Data quality

Most of these data are generated automatically and are frequently updated. Quality checks on data are not normally performed. It is possible for incorrect values to appear. Refer to information at About Latest Weather Observations and please check the disclaimer before using these data.